createdAt,value
2023-06-24T00:00:35.246Z,16.10
2023-06-24T00:03:03.980Z,16.10
2023-06-24T00:05:33.063Z,16.00
2023-06-24T00:08:03.321Z,16.00
2023-06-24T00:10:30.481Z,15.90
2023-06-24T00:12:57.497Z,15.90
2023-06-24T00:15:24.246Z,15.90
2023-06-24T00:17:52.455Z,15.80
2023-06-24T00:20:21.206Z,16.00
2023-06-24T00:22:49.782Z,16.10
2023-06-24T00:25:17.247Z,16.00
2023-06-24T00:27:44.520Z,16.10
2023-06-24T00:30:11.965Z,16.00
2023-06-24T00:32:38.734Z,16.00
2023-06-24T00:35:06.457Z,16.00
2023-06-24T00:37:33.237Z,16.10
2023-06-24T00:40:00.028Z,16.00
2023-06-24T00:42:27.340Z,15.90
2023-06-24T00:44:54.183Z,15.90
2023-06-24T00:47:21.145Z,15.90
2023-06-24T00:49:47.942Z,15.90
2023-06-24T00:52:17.903Z,15.80
2023-06-24T00:54:46.480Z,15.70
2023-06-24T00:57:14.115Z,15.60
2023-06-24T00:59:46.019Z,15.50
2023-06-24T01:02:13.522Z,15.40
2023-06-24T01:04:41.032Z,15.40
2023-06-24T01:07:08.334Z,15.30
2023-06-24T01:09:35.601Z,15.40
2023-06-24T01:12:02.623Z,15.40
2023-06-24T01:14:29.610Z,15.30
2023-06-24T01:17:13.874Z,15.30
2023-06-24T01:20:12.092Z,15.20
2023-06-24T01:22:48.237Z,15.20
2023-06-24T01:25:42.826Z,15.20
2023-06-24T01:28:28.164Z,15.10
2023-06-24T01:31:27.941Z,15.10
2023-06-24T01:34:01.182Z,15.10
2023-06-24T01:36:32.972Z,15.30
2023-06-24T01:39:04.331Z,15.40
2023-06-24T01:41:36.746Z,15.30
2023-06-24T01:44:05.990Z,15.40
2023-06-24T01:46:32.926Z,15.40
2023-06-24T01:49:04.361Z,15.40
2023-06-24T01:51:33.550Z,15.30
2023-06-24T01:54:04.022Z,15.20
2023-06-24T01:56:33.027Z,15.20
2023-06-24T01:59:03.267Z,15.10
2023-06-24T02:01:33.082Z,15.00
2023-06-24T02:04:02.944Z,15.20
2023-06-24T02:06:31.017Z,15.10
2023-06-24T02:08:59.847Z,15.10
2023-06-24T02:11:29.003Z,15.10
2023-06-24T02:13:56.555Z,15.10
2023-06-24T02:16:24.100Z,15.10
2023-06-24T02:18:51.997Z,15.10
2023-06-24T02:21:20.984Z,15.00
2023-06-24T02:23:49.339Z,15.00
2023-06-24T02:26:17.191Z,15.10
2023-06-24T02:28:47.404Z,15.10
2023-06-24T02:31:15.645Z,15.10
2023-06-24T02:33:43.203Z,15.10
2023-06-24T02:36:10.894Z,15.10
2023-06-24T02:38:37.891Z,15.20
2023-06-24T02:41:05.615Z,15.10
2023-06-24T02:43:33.560Z,15.10
2023-06-24T02:46:03.587Z,15.00
2023-06-24T02:48:33.643Z,15.00
2023-06-24T02:51:02.141Z,15.00
2023-06-24T02:53:30.171Z,15.10
2023-06-24T02:55:57.411Z,15.10
2023-06-24T02:58:32.916Z,15.10
2023-06-24T03:01:07.991Z,15.10
2023-06-24T03:03:36.582Z,15.10
2023-06-24T03:06:03.782Z,15.10
2023-06-24T03:08:30.867Z,15.10
2023-06-24T03:10:58.686Z,15.10
2023-06-24T03:13:26.015Z,15.20
2023-06-24T03:15:52.868Z,15.30
2023-06-24T03:18:21.409Z,15.40
2023-06-24T03:20:48.359Z,15.40
2023-06-24T03:23:15.221Z,15.40
2023-06-24T03:25:42.740Z,15.40
2023-06-24T03:28:09.548Z,15.40
2023-06-24T03:33:04.404Z,15.40
2023-06-24T03:35:33.900Z,15.40
2023-06-24T03:38:01.135Z,15.50
2023-06-24T03:40:28.149Z,15.50
2023-06-24T03:42:54.958Z,15.50
2023-06-24T03:45:22.268Z,15.60
2023-06-24T03:47:49.270Z,15.70
2023-06-24T03:50:16.061Z,15.70
2023-06-24T03:52:45.372Z,15.60
2023-06-24T03:55:13.336Z,15.60
2023-06-24T03:57:40.185Z,15.60
2023-06-24T04:00:17.650Z,17.10
2023-06-24T04:02:46.747Z,18.00
2023-06-24T04:05:13.858Z,18.60
2023-06-24T04:07:40.830Z,19.20
2023-06-24T04:10:10.159Z,20.10
2023-06-24T04:12:37.184Z,20.20
2023-06-24T04:15:05.581Z,19.60
2023-06-24T04:17:32.650Z,20.70
2023-06-24T04:19:59.968Z,22.10
2023-06-24T04:22:27.575Z,22.30
2023-06-24T04:24:55.864Z,21.90
2023-06-24T04:27:22.916Z,22.40
2023-06-24T04:29:50.260Z,23.30
2023-06-24T04:32:17.175Z,24.60
2023-06-24T04:34:44.155Z,23.80
2023-06-24T04:37:11.130Z,24.00
2023-06-24T04:39:38.015Z,24.30
2023-06-24T04:42:05.404Z,25.70
2023-06-24T04:44:32.194Z,25.80
2023-06-24T04:46:59.333Z,25.40
2023-06-24T04:49:26.289Z,25.60
2023-06-24T04:51:53.078Z,25.30
2023-06-24T04:54:20.065Z,24.20
2023-06-24T04:56:50.247Z,23.30
2023-06-24T04:59:17.065Z,22.80
2023-06-24T05:01:43.841Z,22.90
2023-06-24T05:04:10.799Z,22.30
2023-06-24T05:06:37.754Z,24.00
2023-06-24T05:09:04.568Z,25.40
2023-06-24T05:11:31.593Z,25.90
2023-06-24T05:13:59.163Z,24.80
2023-06-24T05:16:25.954Z,23.90
2023-06-24T05:18:53.134Z,24.70
2023-06-24T05:21:19.884Z,25.80
2023-06-24T05:23:46.655Z,27.60
2023-06-24T05:26:13.602Z,26.60
2023-06-24T05:28:40.336Z,27.80
2023-06-24T05:31:07.324Z,27.20
2023-06-24T05:33:34.286Z,25.50
2023-06-24T05:36:01.052Z,26.20
2023-06-24T05:38:27.793Z,28.70
2023-06-24T05:40:54.686Z,28.20
2023-06-24T05:43:21.414Z,27.20
2023-06-24T05:45:48.179Z,27.80
2023-06-24T05:48:15.622Z,28.70
2023-06-24T05:50:42.471Z,29.00
2023-06-24T05:53:09.214Z,25.90
2023-06-24T05:55:36.655Z,28.00
2023-06-24T05:58:03.735Z,28.10
2023-06-24T06:00:30.435Z,29.00
2023-06-24T06:02:57.421Z,27.40
2023-06-24T06:05:24.702Z,27.30
2023-06-24T06:07:51.514Z,27.40
2023-06-24T06:10:18.740Z,26.30
2023-06-24T06:12:45.570Z,27.30
2023-06-24T06:15:13.161Z,27.00
2023-06-24T06:17:40.164Z,27.90
2023-06-24T06:20:07.512Z,29.70
2023-06-24T06:22:38.693Z,29.20
2023-06-24T06:25:07.104Z,30.50
2023-06-24T06:27:34.183Z,30.40
2023-06-24T06:30:01.024Z,28.90
2023-06-24T06:32:30.083Z,28.30
2023-06-24T06:34:58.716Z,27.90
2023-06-24T06:37:25.437Z,28.10
2023-06-24T06:39:52.425Z,26.40
2023-06-24T06:42:19.165Z,28.10
2023-06-24T06:44:45.872Z,30.00
2023-06-24T06:47:12.917Z,30.70
2023-06-24T06:49:39.756Z,30.10
2023-06-24T06:52:07.372Z,29.50
2023-06-24T06:54:34.115Z,28.00
2023-06-24T06:57:07.813Z,28.90
2023-06-24T06:59:34.945Z,28.50
2023-06-24T07:02:01.837Z,27.80
2023-06-24T07:04:28.774Z,29.20
2023-06-24T07:06:55.536Z,30.90
2023-06-24T07:09:22.310Z,29.90
2023-06-24T07:11:49.320Z,30.10
2023-06-24T07:14:16.118Z,29.80
2023-06-24T07:16:42.909Z,29.00
2023-06-24T07:19:09.814Z,28.20
2023-06-24T07:21:36.620Z,29.80
2023-06-24T07:24:03.509Z,29.10
2023-06-24T07:26:31.680Z,28.40
2023-06-24T07:29:08.558Z,28.50
2023-06-24T07:31:37.809Z,28.90
2023-06-24T07:34:05.597Z,30.00
2023-06-24T07:36:32.715Z,30.40
2023-06-24T07:38:59.739Z,29.30
2023-06-24T07:41:26.566Z,29.50
2023-06-24T07:43:53.310Z,28.90
2023-06-24T07:46:20.278Z,29.80
2023-06-24T07:48:47.100Z,29.10
2023-06-24T07:51:14.169Z,27.90
2023-06-24T07:53:41.123Z,28.20
2023-06-24T07:56:07.864Z,28.10
2023-06-24T07:58:36.302Z,28.80
2023-06-24T08:01:03.188Z,29.50
2023-06-24T08:03:30.093Z,29.30
2023-06-24T08:05:57.518Z,29.30
2023-06-24T08:08:24.954Z,28.70
2023-06-24T08:10:52.012Z,28.80
2023-06-24T08:13:19.002Z,27.30
2023-06-24T08:15:45.953Z,26.60
2023-06-24T08:18:12.956Z,26.40
2023-06-24T08:20:39.724Z,27.60
2023-06-24T08:23:06.501Z,27.10
2023-06-24T08:25:33.526Z,27.40
2023-06-24T08:28:00.843Z,27.60
2023-06-24T08:30:27.957Z,27.20
2023-06-24T08:32:54.905Z,27.50
2023-06-24T08:35:21.878Z,28.20
2023-06-24T08:37:48.690Z,28.60
2023-06-24T08:40:15.432Z,28.50
2023-06-24T08:42:42.728Z,29.60
2023-06-24T08:45:09.797Z,29.10
2023-06-24T08:47:36.825Z,29.20
2023-06-24T08:50:09.855Z,28.30
2023-06-24T08:52:39.259Z,28.70
2023-06-24T08:55:08.339Z,29.00
2023-06-24T08:57:35.036Z,28.80
2023-06-24T09:00:02.177Z,29.00
2023-06-24T09:02:29.457Z,28.20
2023-06-24T09:04:56.425Z,28.80
2023-06-24T09:07:29.870Z,27.20
2023-06-24T09:09:57.305Z,28.70
2023-06-24T09:12:26.423Z,28.30
2023-06-24T09:14:53.653Z,27.70
2023-06-24T09:17:23.687Z,27.90
2023-06-24T09:19:52.149Z,27.70
2023-06-24T09:22:20.088Z,28.60
2023-06-24T09:24:49.082Z,28.10
2023-06-24T09:27:17.760Z,28.30
2023-06-24T09:29:45.021Z,28.40
2023-06-24T09:32:12.975Z,28.50
2023-06-24T09:34:40.254Z,28.80
2023-06-24T09:37:07.099Z,28.00
2023-06-24T09:39:41.353Z,27.60
2023-06-24T09:42:08.907Z,28.20
2023-06-24T09:44:36.082Z,28.20
2023-06-24T09:47:03.088Z,28.40
2023-06-24T09:49:30.994Z,28.40
2023-06-24T09:51:59.416Z,28.80
2023-06-24T09:54:32.137Z,29.10
2023-06-24T09:57:03.521Z,28.40
2023-06-24T09:59:32.181Z,29.30
2023-06-24T10:02:00.039Z,28.90
2023-06-24T10:04:29.367Z,28.60
2023-06-24T10:06:56.637Z,27.30
2023-06-24T10:09:23.567Z,27.60
2023-06-24T10:11:50.523Z,27.70
2023-06-24T10:14:18.056Z,28.60
2023-06-24T10:16:45.777Z,28.60
2023-06-24T10:19:21.210Z,28.80
2023-06-24T10:21:55.650Z,28.40
2023-06-24T10:24:33.498Z,27.40
2023-06-24T10:27:04.709Z,27.80
2023-06-24T10:29:40.851Z,28.10
2023-06-24T10:32:09.230Z,28.50
2023-06-24T10:34:39.499Z,26.80
2023-06-24T10:37:10.463Z,28.20
2023-06-24T10:39:51.989Z,27.60
2023-06-24T10:42:25.358Z,27.80
2023-06-24T10:44:53.036Z,28.40
2023-06-24T10:47:20.447Z,28.10
2023-06-24T10:49:47.503Z,28.30
2023-06-24T10:52:14.676Z,28.40
2023-06-24T10:54:42.467Z,28.90
2023-06-24T10:57:11.704Z,28.60
2023-06-24T10:59:44.768Z,28.60
2023-06-24T11:02:17.234Z,28.50
2023-06-24T11:04:55.540Z,27.00
2023-06-24T11:07:27.858Z,27.50
2023-06-24T11:09:56.286Z,27.40
2023-06-24T11:12:28.351Z,27.70
2023-06-24T11:14:59.136Z,27.40
2023-06-24T11:17:26.659Z,27.60
2023-06-24T11:19:55.433Z,27.70
2023-06-24T11:22:23.536Z,27.40
2023-06-24T11:24:50.753Z,26.70
2023-06-24T11:27:18.047Z,26.70
2023-06-24T11:29:46.312Z,26.70
2023-06-24T11:32:13.608Z,26.60
2023-06-24T11:34:40.673Z,27.20
2023-06-24T11:37:15.165Z,27.40
2023-06-24T11:39:42.679Z,27.50
2023-06-24T11:42:10.458Z,27.30
2023-06-24T11:44:44.682Z,27.30
2023-06-24T11:47:12.889Z,27.30
2023-06-24T11:49:56.302Z,27.30
2023-06-24T11:52:53.703Z,27.10
2023-06-24T11:55:26.260Z,26.80
2023-06-24T11:57:55.839Z,27.10
2023-06-24T12:00:25.187Z,26.70
2023-06-24T12:02:54.761Z,26.70
2023-06-24T12:05:29.811Z,27.00
2023-06-24T12:08:07.763Z,27.20
2023-06-24T12:10:36.828Z,27.30
2023-06-24T12:13:05.395Z,27.60
2023-06-24T12:15:34.350Z,27.80
2023-06-24T12:18:03.100Z,27.70
2023-06-24T12:20:34.298Z,27.80
2023-06-24T12:23:02.137Z,27.90
2023-06-24T12:25:29.006Z,27.30
2023-06-24T12:27:56.346Z,27.40
2023-06-24T12:30:23.661Z,27.00
2023-06-24T12:32:52.516Z,27.10
2023-06-24T12:35:19.420Z,27.30
2023-06-24T12:37:46.819Z,27.10
2023-06-24T12:40:13.993Z,27.20
2023-06-24T12:42:41.168Z,27.70
2023-06-24T12:45:08.882Z,27.20
2023-06-24T12:47:35.842Z,27.40
2023-06-24T12:50:09.221Z,27.30
2023-06-24T12:52:36.765Z,27.50
2023-06-24T12:55:05.145Z,27.20
2023-06-24T12:57:32.110Z,27.20
2023-06-24T12:59:59.248Z,27.20
2023-06-24T13:02:26.487Z,27.40
2023-06-24T13:04:53.447Z,27.70
2023-06-24T13:07:20.769Z,27.80
2023-06-24T13:09:47.741Z,28.00
2023-06-24T13:12:14.556Z,27.90
2023-06-24T13:14:41.572Z,28.10
2023-06-24T13:17:08.331Z,28.10
2023-06-24T13:19:35.088Z,28.50
2023-06-24T13:22:01.938Z,28.30
2023-06-24T13:24:29.123Z,28.10
2023-06-24T13:26:56.177Z,28.30
2023-06-24T13:29:22.970Z,28.50
2023-06-24T13:31:52.256Z,28.50
2023-06-24T13:34:19.973Z,28.30
2023-06-24T13:36:48.210Z,28.20
2023-06-24T13:39:18.124Z,28.30
2023-06-24T13:41:48.004Z,28.10
2023-06-24T13:44:15.444Z,28.00
2023-06-24T13:46:42.248Z,28.20
2023-06-24T13:49:09.282Z,28.50
2023-06-24T13:51:36.307Z,28.60
2023-06-24T13:54:03.276Z,28.30
2023-06-24T13:56:30.522Z,27.70
2023-06-24T13:58:57.810Z,27.50
2023-06-24T14:01:24.968Z,27.50
2023-06-24T14:03:53.967Z,27.10
2023-06-24T14:06:23.319Z,27.20
2023-06-24T14:08:51.367Z,27.20
2023-06-24T14:11:18.422Z,27.20
2023-06-24T14:13:45.668Z,27.10
2023-06-24T14:16:13.194Z,27.00
2023-06-24T14:18:40.485Z,26.90
2023-06-24T14:21:08.204Z,26.90
2023-06-24T14:23:35.265Z,27.00
2023-06-24T14:26:02.500Z,27.00
2023-06-24T14:28:29.560Z,27.30
2023-06-24T14:30:56.608Z,27.10
2023-06-24T14:33:23.890Z,27.20
2023-06-24T14:35:52.465Z,27.30
2023-06-24T14:38:19.818Z,27.60
2023-06-24T14:40:46.762Z,27.40
2023-06-24T14:43:13.817Z,27.50
2023-06-24T14:45:40.635Z,27.30
2023-06-24T14:48:07.639Z,26.80
2023-06-24T14:50:34.850Z,27.10
2023-06-24T14:53:01.999Z,27.10
2023-06-24T14:55:28.756Z,27.10
2023-06-24T14:57:55.728Z,26.90
2023-06-24T15:00:22.548Z,26.90
2023-06-24T15:02:49.502Z,26.70
2023-06-24T15:05:16.624Z,26.70
2023-06-24T15:07:43.496Z,26.70
2023-06-24T15:10:10.387Z,26.60
2023-06-24T15:12:37.467Z,26.70
2023-06-24T15:15:04.541Z,27.10
2023-06-24T15:17:31.734Z,26.90
2023-06-24T15:19:58.754Z,27.10
2023-06-24T15:22:25.818Z,27.20
2023-06-24T15:24:52.750Z,27.40
2023-06-24T15:27:20.027Z,27.40
2023-06-24T15:29:46.734Z,27.40
2023-06-24T15:32:13.712Z,27.10
2023-06-24T15:34:40.822Z,26.90
2023-06-24T15:37:07.654Z,26.80
2023-06-24T15:39:35.065Z,26.90
2023-06-24T15:42:02.148Z,26.90
2023-06-24T15:44:29.241Z,26.80
2023-06-24T15:46:56.343Z,26.70
2023-06-24T15:49:23.313Z,26.70
2023-06-24T15:51:50.358Z,26.80
2023-06-24T15:54:17.138Z,26.90
2023-06-24T15:56:44.254Z,26.70
2023-06-24T15:59:10.993Z,26.60
2023-06-24T16:01:37.884Z,26.60
2023-06-24T16:04:05.359Z,26.60
2023-06-24T16:06:32.178Z,26.70
2023-06-24T16:08:58.948Z,26.70
2023-06-24T16:11:25.851Z,26.70
2023-06-24T16:13:52.758Z,26.90
2023-06-24T16:16:19.524Z,26.80
2023-06-24T16:18:46.546Z,27.00
2023-06-24T16:21:13.362Z,27.10
2023-06-24T16:23:40.180Z,27.30
2023-06-24T16:26:07.167Z,27.20
2023-06-24T16:28:33.893Z,27.00
2023-06-24T16:31:00.723Z,27.00
2023-06-24T16:33:27.631Z,27.10
2023-06-24T16:35:54.598Z,26.90
2023-06-24T16:38:21.435Z,26.90
2023-06-24T16:40:48.381Z,26.80
2023-06-24T16:43:15.134Z,26.80
2023-06-24T16:45:42.022Z,26.50
2023-06-24T16:48:10.862Z,26.30
2023-06-24T16:50:38.045Z,26.30
2023-06-24T16:53:05.203Z,26.30
2023-06-24T16:55:31.948Z,26.20
2023-06-24T16:57:58.669Z,26.20
2023-06-24T17:00:25.736Z,26.20
2023-06-24T17:02:52.663Z,26.20
2023-06-24T17:05:19.831Z,26.20
2023-06-24T17:07:46.809Z,26.30
2023-06-24T17:10:13.660Z,26.30
2023-06-24T17:12:42.319Z,26.20
2023-06-24T17:15:11.272Z,26.10
2023-06-24T17:17:38.543Z,26.10
2023-06-24T17:20:06.191Z,26.10
2023-06-24T17:22:33.083Z,26.10
2023-06-24T17:24:59.871Z,26.20
2023-06-24T17:27:26.687Z,26.30
2023-06-24T17:29:57.325Z,26.30
2023-06-24T17:32:24.465Z,26.30
2023-06-24T17:34:52.314Z,26.20
2023-06-24T17:37:19.488Z,26.20
2023-06-24T17:39:46.361Z,26.20
2023-06-24T17:42:13.415Z,26.40
2023-06-24T17:44:41.046Z,26.30
2023-06-24T17:47:08.026Z,26.30
2023-06-24T17:49:34.819Z,26.30
2023-06-24T17:52:01.900Z,26.30
2023-06-24T17:54:28.752Z,26.30
2023-06-24T17:56:55.542Z,26.30
2023-06-24T17:59:22.729Z,26.40
2023-06-24T18:01:49.969Z,26.30
2023-06-24T18:04:17.126Z,26.20
2023-06-24T18:06:45.560Z,26.20
2023-06-24T18:09:13.536Z,26.20
2023-06-24T18:11:40.642Z,26.10
2023-06-24T18:14:08.200Z,26.00
2023-06-24T18:16:40.204Z,25.90
2023-06-24T18:19:09.179Z,26.00
2023-06-24T18:21:37.495Z,25.80
2023-06-24T18:24:04.378Z,25.80
2023-06-24T18:26:31.236Z,25.80
2023-06-24T18:28:58.992Z,25.70
2023-06-24T18:31:26.949Z,25.70
2023-06-24T18:33:56.524Z,25.60
2023-06-24T18:36:25.059Z,25.50
2023-06-24T18:38:51.955Z,25.40
2023-06-24T18:41:18.711Z,25.30
2023-06-24T18:43:45.637Z,25.30
2023-06-24T18:46:12.493Z,25.30
2023-06-24T18:48:41.373Z,25.20
2023-06-24T18:51:08.300Z,25.20
2023-06-24T18:53:35.083Z,25.10
2023-06-24T18:56:01.889Z,25.10
2023-06-24T18:58:29.794Z,25.00
2023-06-24T19:00:56.962Z,24.90
2023-06-24T19:03:24.021Z,24.90
2023-06-24T19:05:51.011Z,24.90
2023-06-24T19:08:18.015Z,24.80
2023-06-24T19:10:44.896Z,24.80
2023-06-24T19:13:11.986Z,24.70
2023-06-24T19:15:38.729Z,24.70
2023-06-24T19:18:05.699Z,24.60
2023-06-24T19:20:32.680Z,24.60
2023-06-24T19:22:59.528Z,24.40
2023-06-24T19:25:26.345Z,24.40
2023-06-24T19:27:53.631Z,24.40
2023-06-24T19:30:20.506Z,24.30
2023-06-24T19:32:47.400Z,24.30
2023-06-24T19:35:14.519Z,24.20
2023-06-24T19:37:43.427Z,24.00
2023-06-24T19:40:10.582Z,24.00
2023-06-24T19:42:38.420Z,23.70
2023-06-24T19:45:06.271Z,23.60
2023-06-24T19:47:33.166Z,23.60
2023-06-24T19:50:00.311Z,23.40
2023-06-24T19:52:27.181Z,23.30
2023-06-24T19:54:53.986Z,23.10
2023-06-24T19:57:21.666Z,23.00
2023-06-24T19:59:48.494Z,22.90
2023-06-24T20:02:15.649Z,22.90
2023-06-24T20:04:42.859Z,22.80
2023-06-24T20:07:09.809Z,22.60
2023-06-24T20:09:37.210Z,22.50
2023-06-24T20:12:04.483Z,22.40
2023-06-24T20:14:31.301Z,22.30
2023-06-24T20:16:58.226Z,22.30
2023-06-24T20:19:25.111Z,22.20
2023-06-24T20:21:52.508Z,22.10
2023-06-24T20:24:19.563Z,22.00
2023-06-24T20:26:46.328Z,22.00
2023-06-24T20:29:13.213Z,21.90
2023-06-24T20:31:40.288Z,21.80
2023-06-24T20:34:07.138Z,21.70
2023-06-24T20:36:34.165Z,21.60
2023-06-24T20:39:01.489Z,21.60
2023-06-24T20:41:32.307Z,21.60
2023-06-24T20:44:00.293Z,21.50
2023-06-24T20:46:28.753Z,21.50
2023-06-24T20:48:55.930Z,21.40
2023-06-24T20:51:23.043Z,21.30
2023-06-24T20:53:50.572Z,21.30
2023-06-24T20:56:17.359Z,21.20
2023-06-24T20:58:44.166Z,21.20
2023-06-24T21:01:11.458Z,21.10
2023-06-24T21:03:40.439Z,21.10
2023-06-24T21:06:08.227Z,21.00
2023-06-24T21:08:37.375Z,21.00
2023-06-24T21:11:04.717Z,21.00
2023-06-24T21:13:31.611Z,20.90
2023-06-24T21:15:58.602Z,20.90
2023-06-24T21:18:25.385Z,20.80
2023-06-24T21:20:52.312Z,20.80
2023-06-24T21:23:19.290Z,20.70
2023-06-24T21:25:46.841Z,20.60
2023-06-24T21:28:13.855Z,20.60
2023-06-24T21:30:41.307Z,20.50
2023-06-24T21:33:08.141Z,20.40
2023-06-24T21:35:35.032Z,20.40
2023-06-24T21:38:02.053Z,20.30
2023-06-24T21:40:29.880Z,20.30
2023-06-24T21:42:57.042Z,20.30
2023-06-24T21:45:24.449Z,20.30
2023-06-24T21:47:51.393Z,20.20
2023-06-24T21:50:18.309Z,20.20
2023-06-24T21:52:45.236Z,20.20
2023-06-24T21:55:12.097Z,20.20
2023-06-24T21:57:39.126Z,20.10
2023-06-24T22:00:09.010Z,20.10
2023-06-24T22:02:35.915Z,19.90
2023-06-24T22:05:03.307Z,20.00
2023-06-24T22:07:30.196Z,20.00
2023-06-24T22:09:57.436Z,20.00
2023-06-24T22:12:24.439Z,20.00
2023-06-24T22:14:51.391Z,20.00
2023-06-24T22:17:18.401Z,19.90
2023-06-24T22:19:45.425Z,19.90
2023-06-24T22:22:12.247Z,19.80
2023-06-24T22:24:39.170Z,19.80
2023-06-24T22:27:06.254Z,19.70
2023-06-24T22:29:33.040Z,19.70
2023-06-24T22:31:59.883Z,19.70
2023-06-24T22:34:26.887Z,19.60
2023-06-24T22:36:53.658Z,19.60
2023-06-24T22:39:20.669Z,19.60
2023-06-24T22:41:47.669Z,19.60
2023-06-24T22:44:15.318Z,19.50
2023-06-24T22:46:42.111Z,19.40
2023-06-24T22:49:09.058Z,19.50
2023-06-24T22:51:35.894Z,19.40
2023-06-24T22:54:03.260Z,19.40
2023-06-24T22:56:30.104Z,19.40
2023-06-24T22:58:57.358Z,19.40
2023-06-24T23:01:24.320Z,19.40
2023-06-24T23:03:51.682Z,19.40
2023-06-24T23:06:18.698Z,19.40
2023-06-24T23:08:45.987Z,19.40
2023-06-24T23:11:12.970Z,19.40
2023-06-24T23:13:40.638Z,19.30
2023-06-24T23:16:09.269Z,19.30
2023-06-24T23:18:36.366Z,19.30
2023-06-24T23:21:03.815Z,19.20
2023-06-24T23:23:37.791Z,19.20
2023-06-24T23:26:20.503Z,19.20
2023-06-24T23:28:54.244Z,19.10
2023-06-24T23:31:24.495Z,19.10
2023-06-24T23:33:51.678Z,19.10
2023-06-24T23:36:18.861Z,19.00
2023-06-24T23:38:45.875Z,19.00
2023-06-24T23:41:12.800Z,19.00
2023-06-24T23:43:40.039Z,19.00
2023-06-24T23:46:07.168Z,18.90
2023-06-24T23:48:34.211Z,19.00
2023-06-24T23:51:01.087Z,19.00
2023-06-24T23:53:27.948Z,19.00
2023-06-24T23:55:54.895Z,19.00
2023-06-24T23:58:21.654Z,18.90
